Time;durP1;ratioP1;P1;durP2;ratioP2;P2;SDS_P1;SDS_P2;PMS_P1;PMS_P2;Temp;Humidity;BMP_temperature;BMP_pressure;BME280_temperature;BME280_humidity;BME280_pressure;Samples;Min_cycle;Max_cycle;Signal;HPM_P1;HPM_P2
2021/06/30 00:02:03;;;;;;;4.57;3.03;;;;;;;;;;5070636;28;20017;-65
2021/06/30 00:04:28;;;;;;;5.75;3.08;;;;;;;;;;5071013;28;20017;-65
2021/06/30 00:06:53;;;;;;;6.78;3.33;;;;;;;;;;5071437;28;20316;-65
2021/06/30 00:09:19;;;;;;;8.75;3.00;;;;;;;;;;5070831;28;20111;-65
2021/06/30 00:11:44;;;;;;;10.52;3.65;;;;;;;;;;5071002;28;20035;-65
2021/06/30 00:14:09;;;;;;;4.32;3.22;;;;;;;;;;5071351;28;20084;-65
2021/06/30 00:16:35;;;;;;;6.07;3.65;;;;;;;;;;5071591;28;20082;-65
2021/06/30 00:19:01;;;;;;;4.28;3.38;;;;;;;;;;5071263;28;20024;-65
2021/06/30 00:21:26;;;;;;;6.90;4.10;;;;;;;;;;5070344;28;20323;-65
2021/06/30 00:23:52;;;;;;;12.30;4.13;;;;;;;;;;5071724;28;20055;-65
2021/06/30 00:26:17;;;;;;;15.30;4.10;;;;;;;;;;5071382;28;20045;-65
2021/06/30 00:28:42;;;;;;;7.07;4.40;;;;;;;;;;5070649;28;20024;-65
2021/06/30 00:31:07;;;;;;;6.60;4.37;;;;;;;;;;5070225;28;20353;-65
2021/06/30 00:33:32;;;;;;;11.13;4.10;;;;;;;;;;5070985;28;20639;-65
2021/06/30 00:35:57;;;;;;;13.20;4.22;;;;;;;;;;5070842;28;20369;-65
2021/06/30 00:38:23;;;;;;;6.43;4.33;;;;;;;;;;5071095;28;20020;-65
2021/06/30 00:40:48;;;;;;;8.50;4.07;;;;;;;;;;5071334;28;20313;-65
2021/06/30 00:43:13;;;;;;;8.85;4.35;;;;;;;;;;5070272;28;20013;-65
2021/06/30 00:45:38;;;;;;;18.27;5.37;;;;;;;;;;5071142;28;20098;-65
2021/06/30 00:48:04;;;;;;;18.30;9.20;;;;;;;;;;5070609;28;20361;-65
2021/06/30 00:50:29;;;;;;;19.50;11.15;;;;;;;;;;5070510;28;20269;-65
2021/06/30 00:52:55;;;;;;;18.65;12.00;;;;;;;;;;5070696;28;20025;-65
2021/06/30 00:55:22;;;;;;;14.95;9.48;;;;;;;;;;5069790;28;20086;-65
2021/06/30 00:57:48;;;;;;;13.07;7.50;;;;;;;;;;5069967;28;20024;-65
2021/06/30 01:00:13;;;;;;;11.63;6.72;;;;;;;;;;5070303;28;20017;-65
2021/06/30 01:02:38;;;;;;;9.90;6.32;;;;;;;;;;5070339;28;20017;-65
2021/06/30 01:05:04;;;;;;;11.18;6.25;;;;;;;;;;5070061;28;20029;-65
2021/06/30 01:07:29;;;;;;;10.13;6.90;;;;;;;;;;5069912;28;20450;-65
2021/06/30 01:09:54;;;;;;;14.15;7.35;;;;;;;;;;5070143;28;20051;-65
2021/06/30 01:12:19;;;;;;;10.60;7.73;;;;;;;;;;5069908;28;20028;-65
2021/06/30 01:14:44;;;;;;;11.35;6.20;;;;;;;;;;5070523;28;20857;-65
2021/06/30 01:17:10;;;;;;;10.50;6.90;;;;;;;;;;5070631;28;20024;-65
2021/06/30 01:19:37;;;;;;;9.73;6.30;;;;;;;;;;5069629;28;20157;-65
2021/06/30 01:22:03;;;;;;;16.40;6.82;;;;;;;;;;5069801;28;20063;-65
2021/06/30 01:24:28;;;;;;;10.75;6.57;;;;;;;;;;5070273;28;20024;-65
2021/06/30 01:26:54;;;;;;;11.43;7.03;;;;;;;;;;5070211;28;20028;-65
2021/06/30 01:29:20;;;;;;;14.43;5.95;;;;;;;;;;5070215;28;20535;-65
2021/06/30 01:31:45;;;;;;;14.23;5.72;;;;;;;;;;5070662;28;20381;-65
2021/06/30 01:34:11;;;;;;;6.63;4.97;;;;;;;;;;5069822;28;20027;-65
2021/06/30 01:37:03;;;;;;;10.70;6.20;;;;;;;;;;5068972;28;20059;-65
2021/06/30 01:39:28;;;;;;;10.00;5.10;;;;;;;;;;5057765;28;20395;-65
2021/06/30 01:41:53;;;;;;;14.10;5.75;;;;;;;;;;5069923;28;20107;-65
2021/06/30 01:44:19;;;;;;;11.68;4.97;;;;;;;;;;5070213;28;20070;-65
2021/06/30 01:46:44;;;;;;;6.55;4.15;;;;;;;;;;5069803;28;20017;-65
2021/06/30 01:49:09;;;;;;;11.50;4.70;;;;;;;;;;5069746;28;20033;-65
2021/06/30 01:51:35;;;;;;;9.07;5.00;;;;;;;;;;5069498;28;20552;-65
2021/06/30 01:54:02;;;;;;;9.13;5.45;;;;;;;;;;5069673;28;20077;-65
2021/06/30 01:56:28;;;;;;;10.88;5.15;;;;;;;;;;5069160;28;20117;-65
2021/06/30 01:59:00;;;;;;;8.13;4.30;;;;;;;;;;5069248;28;20473;-65
2021/06/30 02:01:26;;;;;;;8.68;4.88;;;;;;;;;;5069975;28;20660;-65
2021/06/30 02:03:51;;;;;;;9.38;4.13;;;;;;;;;;5070349;28;20048;-65
2021/06/30 02:06:16;;;;;;;11.75;4.53;;;;;;;;;;5069471;28;20035;-65
2021/06/30 02:08:41;;;;;;;8.20;4.90;;;;;;;;;;5069698;28;20028;-65
2021/06/30 02:11:06;;;;;;;7.97;5.10;;;;;;;;;;5069249;28;20392;-65
2021/06/30 02:13:32;;;;;;;8.63;4.67;;;;;;;;;;5070767;28;20605;-65
2021/06/30 02:15:57;;;;;;;8.93;4.78;;;;;;;;;;5070200;28;20254;-65
2021/06/30 02:18:22;;;;;;;8.20;5.95;;;;;;;;;;5070009;28;20024;-65
2021/06/30 02:20:47;;;;;;;6.37;4.50;;;;;;;;;;5069901;28;20476;-65
2021/06/30 02:23:12;;;;;;;7.40;4.82;;;;;;;;;;5069896;28;20267;-65
2021/06/30 02:25:38;;;;;;;9.50;4.32;;;;;;;;;;5069119;28;20025;-65
2021/06/30 02:28:03;;;;;;;10.85;4.63;;;;;;;;;;5069546;28;20028;-65
2021/06/30 02:30:29;;;;;;;6.63;4.03;;;;;;;;;;5069516;28;20027;-65
2021/06/30 02:32:56;;;;;;;6.13;4.47;;;;;;;;;;5070102;28;20389;-65
2021/06/30 02:35:22;;;;;;;8.05;4.88;;;;;;;;;;5069280;28;20125;-65
2021/06/30 02:37:49;;;;;;;9.23;4.47;;;;;;;;;;5069013;28;20043;-65
2021/06/30 02:40:14;;;;;;;7.40;4.63;;;;;;;;;;5065636;28;20016;-65
2021/06/30 02:42:40;;;;;;;7.85;4.30;;;;;;;;;;5069493;28;20078;-65
2021/06/30 02:45:07;;;;;;;10.43;4.80;;;;;;;;;;5069549;28;20067;-65
2021/06/30 02:47:32;;;;;;;7.00;3.97;;;;;;;;;;5070039;28;20031;-65
2021/06/30 02:49:57;;;;;;;6.38;4.45;;;;;;;;;;5069583;28;20099;-65
2021/06/30 02:52:22;;;;;;;7.10;4.25;;;;;;;;;;5069469;28;20017;-65
2021/06/30 02:54:48;;;;;;;7.20;4.23;;;;;;;;;;5069513;28;20028;-65
2021/06/30 02:57:13;;;;;;;6.10;4.10;;;;;;;;;;5069179;28;20262;-65
2021/06/30 02:59:38;;;;;;;5.93;3.70;;;;;;;;;;5074075;28;20604;-65
2021/06/30 03:02:03;;;;;;;5.18;3.22;;;;;;;;;;5069202;28;20044;-65
2021/06/30 03:04:29;;;;;;;7.82;4.00;;;;;;;;;;5069062;28;20082;-65
2021/06/30 03:06:54;;;;;;;9.55;3.80;;;;;;;;;;5069190;28;20031;-65
2021/06/30 03:09:21;;;;;;;5.78;3.65;;;;;;;;;;5069156;28;20051;-65
2021/06/30 03:11:46;;;;;;;7.25;4.65;;;;;;;;;;5068990;28;20039;-65
2021/06/30 03:14:12;;;;;;;6.50;3.80;;;;;;;;;;5069379;28;20021;-65
2021/06/30 03:16:37;;;;;;;6.37;3.73;;;;;;;;;;5069363;28;20271;-65
2021/06/30 03:19:02;;;;;;;8.20;4.37;;;;;;;;;;5069381;28;20816;-65
2021/06/30 03:21:27;;;;;;;6.25;4.10;;;;;;;;;;5071954;28;20265;-65
2021/06/30 03:23:52;;;;;;;6.83;4.00;;;;;;;;;;5072539;28;20023;-65
2021/06/30 03:26:17;;;;;;;7.82;4.75;;;;;;;;;;5072476;28;20772;-65
2021/06/30 03:28:43;;;;;;;8.17;4.90;;;;;;;;;;5072355;28;20020;-65
2021/06/30 03:31:08;;;;;;;10.73;3.85;;;;;;;;;;5072277;28;20274;-65
2021/06/30 03:33:33;;;;;;;6.95;4.45;;;;;;;;;;5072530;28;20392;-65
2021/06/30 03:35:58;;;;;;;11.15;5.88;;;;;;;;;;5072334;28;20377;-65
2021/06/30 03:38:23;;;;;;;13.57;5.30;;;;;;;;;;5072893;28;20029;-65
2021/06/30 03:40:49;;;;;;;6.93;4.50;;;;;;;;;;5072575;28;20273;-65
2021/06/30 03:43:14;;;;;;;8.90;5.00;;;;;;;;;;5072255;28;20051;-65
2021/06/30 03:45:39;;;;;;;22.57;6.10;;;;;;;;;;5072735;28;20400;-65
2021/06/30 03:48:05;;;;;;;11.27;6.22;;;;;;;;;;5072472;28;20267;-65
2021/06/30 03:50:30;;;;;;;10.20;5.63;;;;;;;;;;5071599;28;20453;-65
2021/06/30 03:52:55;;;;;;;13.82;6.00;;;;;;;;;;5071704;28;20115;-65
2021/06/30 03:55:20;;;;;;;14.93;8.55;;;;;;;;;;5071349;28;20070;-65
2021/06/30 03:57:46;;;;;;;14.35;7.25;;;;;;;;;;5072371;28;20028;-65
2021/06/30 04:00:11;;;;;;;12.10;7.33;;;;;;;;;;5072539;28;20065;-65
2021/06/30 04:02:36;;;;;;;12.18;7.00;;;;;;;;;;5072014;28;20605;-65
2021/06/30 04:05:02;;;;;;;17.37;8.27;;;;;;;;;;5071037;28;20044;-65
2021/06/30 04:07:27;;;;;;;18.63;7.40;;;;;;;;;;5071585;28;20312;-65
2021/06/30 04:09:52;;;;;;;11.40;7.00;;;;;;;;;;5071980;28;20103;-65
2021/06/30 04:12:17;;;;;;;24.30;9.00;;;;;;;;;;5071767;28;20270;-65
2021/06/30 04:14:42;;;;;;;9.43;6.20;;;;;;;;;;5075770;28;20275;-65
2021/06/30 04:17:07;;;;;;;15.17;8.23;;;;;;;;;;5090635;28;20016;-65
2021/06/30 04:19:33;;;;;;;18.08;9.70;;;;;;;;;;5071377;28;20262;-65
2021/06/30 04:21:58;;;;;;;18.42;8.35;;;;;;;;;;5070991;28;20030;-65
2021/06/30 04:24:23;;;;;;;20.20;9.15;;;;;;;;;;5071067;28;20035;-65
2021/06/30 04:26:48;;;;;;;22.05;7.38;;;;;;;;;;5071428;28;20025;-65
2021/06/30 04:29:13;;;;;;;19.17;8.30;;;;;;;;;;5071686;28;20027;-65
2021/06/30 04:31:39;;;;;;;15.02;6.78;;;;;;;;;;5071160;28;20646;-65
2021/06/30 04:34:05;;;;;;;15.17;6.83;;;;;;;;;;5071017;28;20519;-65
2021/06/30 04:36:30;;;;;;;16.42;8.63;;;;;;;;;;5071050;28;20266;-65
2021/06/30 04:38:55;;;;;;;15.67;8.07;;;;;;;;;;5071569;28;20029;-65
2021/06/30 04:41:20;;;;;;;12.23;7.00;;;;;;;;;;5070893;28;20783;-65
2021/06/30 04:43:45;;;;;;;12.50;7.00;;;;;;;;;;5071147;28;20270;-65
2021/06/30 04:46:11;;;;;;;11.93;6.63;;;;;;;;;;5070849;28;20021;-65
2021/06/30 04:48:36;;;;;;;15.00;7.55;;;;;;;;;;5070890;28;20048;-65
2021/06/30 04:51:02;;;;;;;13.00;6.15;;;;;;;;;;5070554;28;20006;-65
2021/06/30 04:53:28;;;;;;;14.35;5.90;;;;;;;;;;5070869;28;20055;-65
2021/06/30 04:55:53;;;;;;;15.07;5.70;;;;;;;;;;5070687;28;20051;-65
2021/06/30 04:58:18;;;;;;;12.25;6.20;;;;;;;;;;5070950;28;20012;-65
2021/06/30 05:00:44;;;;;;;9.70;4.53;;;;;;;;;;5080831;22;20047;-65
2021/06/30 05:03:09;;;;;;;11.10;4.67;;;;;;;;;;5042516;28;20370;-65
2021/06/30 05:05:34;;;;;;;13.30;4.57;;;;;;;;;;5030333;28;20362;-65
2021/06/30 05:07:59;;;;;;;10.05;5.05;;;;;;;;;;5017326;28;20026;-65
2021/06/30 05:10:25;;;;;;;9.80;5.88;;;;;;;;;;5016704;28;20104;-65
2021/06/30 05:12:50;;;;;;;12.52;5.47;;;;;;;;;;5030095;28;20113;-65
2021/06/30 05:15:16;;;;;;;6.85;4.05;;;;;;;;;;5030847;28;20065;-65
2021/06/30 05:17:41;;;;;;;13.20;3.80;;;;;;;;;;5030990;28;20467;-65
2021/06/30 05:20:06;;;;;;;10.23;6.00;;;;;;;;;;5030375;28;20272;-65
2021/06/30 05:22:31;;;;;;;12.50;5.05;;;;;;;;;;5030572;28;20272;-65
2021/06/30 05:24:57;;;;;;;9.23;5.20;;;;;;;;;;5027848;28;20512;-65
2021/06/30 05:27:22;;;;;;;5.93;3.33;;;;;;;;;;5030016;28;20099;-65
2021/06/30 05:29:47;;;;;;;8.52;4.75;;;;;;;;;;5029945;28;20367;-66
2021/06/30 05:32:12;;;;;;;7.63;4.40;;;;;;;;;;5030564;28;20033;-66
2021/06/30 05:34:38;;;;;;;11.70;2.80;;;;;;;;;;5029800;28;20025;-65
2021/06/30 05:37:03;;;;;;;6.97;4.30;;;;;;;;;;5029385;28;20291;-66
2021/06/30 05:39:28;;;;;;;8.05;2.67;;;;;;;;;;5026042;28;20030;-66
2021/06/30 05:41:53;;;;;;;8.02;4.22;;;;;;;;;;5027534;28;20021;-66
2021/06/30 05:44:19;;;;;;;7.07;3.95;;;;;;;;;;5027999;28;20052;-65
2021/06/30 05:46:44;;;;;;;8.27;4.95;;;;;;;;;;5027654;28;20025;-65
2021/06/30 05:49:11;;;;;;;10.60;4.55;;;;;;;;;;5028281;28;20304;-65
2021/06/30 05:51:37;;;;;;;6.90;3.22;;;;;;;;;;5026881;28;20029;-65
2021/06/30 05:54:02;;;;;;;15.10;5.78;;;;;;;;;;5027669;28;20610;-66
2021/06/30 05:56:28;;;;;;;8.00;5.30;;;;;;;;;;5025384;28;20017;-66
2021/06/30 05:58:53;;;;;;;12.30;5.43;;;;;;;;;;5025510;28;20017;-66
2021/06/30 06:01:18;;;;;;;8.02;4.53;;;;;;;;;;5018460;28;20477;-66
2021/06/30 06:03:44;;;;;;;8.88;4.78;;;;;;;;;;5029775;28;20420;-66
2021/06/30 06:06:09;;;;;;;9.40;4.40;;;;;;;;;;5029857;28;20026;-66
2021/06/30 06:08:34;;;;;;;7.05;3.90;;;;;;;;;;5023139;28;20113;-66
2021/06/30 06:11:00;;;;;;;11.27;5.32;;;;;;;;;;5021076;28;20029;-66
2021/06/30 06:13:25;;;;;;;8.73;4.57;;;;;;;;;;5030059;28;20071;-66
2021/06/30 06:15:51;;;;;;;6.15;4.20;;;;;;;;;;5028345;28;20029;-65
2021/06/30 06:18:16;;;;;;;8.48;4.18;;;;;;;;;;5028437;28;20036;-65
2021/06/30 06:20:41;;;;;;;9.30;4.03;;;;;;;;;;5029387;28;20018;-65
2021/06/30 06:23:07;;;;;;;9.23;4.47;;;;;;;;;;5021916;28;20763;-66
2021/06/30 06:25:32;;;;;;;10.73;3.30;;;;;;;;;;5029185;28;20108;-66
2021/06/30 06:27:57;;;;;;;4.60;3.20;;;;;;;;;;5029388;28;20017;-66
2021/06/30 06:30:27;;;;;;;9.27;3.40;;;;;;;;;;5030110;28;20580;-66
2021/06/30 06:32:52;;;;;;;10.00;3.75;;;;;;;;;;5030280;28;20259;-66
2021/06/30 06:35:17;;;;;;;4.63;2.92;;;;;;;;;;5029667;28;20037;-66
2021/06/30 06:37:42;;;;;;;5.33;3.23;;;;;;;;;;5029893;28;20021;-66
2021/06/30 06:40:08;;;;;;;4.47;2.97;;;;;;;;;;5028216;28;20260;-66
2021/06/30 06:42:35;;;;;;;3.85;2.42;;;;;;;;;;5029635;28;20068;-66
2021/06/30 06:45:00;;;;;;;6.40;3.00;;;;;;;;;;5027154;28;20022;-66
2021/06/30 06:47:26;;;;;;;6.30;3.33;;;;;;;;;;5029410;28;20189;-66
2021/06/30 06:49:51;;;;;;;6.95;2.88;;;;;;;;;;5029281;28;20756;-66
2021/06/30 06:52:16;;;;;;;5.28;3.78;;;;;;;;;;5028401;28;20091;-66
2021/06/30 06:54:41;;;;;;;6.57;3.30;;;;;;;;;;5031333;28;20436;-66
2021/06/30 06:57:06;;;;;;;6.25;3.63;;;;;;;;;;5032479;28;20268;-66
2021/06/30 06:59:32;;;;;;;8.10;4.53;;;;;;;;;;5032535;28;20024;-66
2021/06/30 07:01:57;;;;;;;17.00;4.40;;;;;;;;;;5032759;28;20021;-66
2021/06/30 07:04:22;;;;;;;4.00;2.03;;;;;;;;;;5033358;28;20488;-66
2021/06/30 07:06:47;;;;;;;6.82;3.88;;;;;;;;;;5031758;28;20268;-66
2021/06/30 07:09:12;;;;;;;10.60;4.18;;;;;;;;;;5032130;28;20037;-66
2021/06/30 07:11:38;;;;;;;9.10;4.27;;;;;;;;;;5032468;28;20120;-66
2021/06/30 07:14:03;;;;;;;6.90;3.90;;;;;;;;;;5031047;28;20288;-66
2021/06/30 07:16:28;;;;;;;8.13;4.50;;;;;;;;;;5031013;28;20814;-66
2021/06/30 07:18:53;;;;;;;13.93;3.42;;;;;;;;;;5032230;28;20382;-66
2021/06/30 07:21:18;;;;;;;4.93;3.90;;;;;;;;;;5032679;28;20488;-66
2021/06/30 07:23:44;;;;;;;8.50;3.27;;;;;;;;;;5032889;28;20272;-66
2021/06/30 07:26:11;;;;;;;6.97;3.95;;;;;;;;;;5032753;28;20295;-66
2021/06/30 07:28:36;;;;;;;10.38;4.93;;;;;;;;;;5033189;28;20021;-66
2021/06/30 07:31:02;;;;;;;7.90;4.57;;;;;;;;;;5031844;28;20020;-66
2021/06/30 07:33:27;;;;;;;10.77;7.67;;;;;;;;;;5032121;28;20014;-66
2021/06/30 07:35:52;;;;;;;10.07;7.13;;;;;;;;;;5032269;28;20691;-66
2021/06/30 07:38:17;;;;;;;12.75;7.82;;;;;;;;;;5032517;28;20045;-66
2021/06/30 07:40:43;;;;;;;8.77;7.00;;;;;;;;;;5032734;28;20029;-66
2021/06/30 07:43:08;;;;;;;16.50;6.35;;;;;;;;;;5032153;28;20264;-66
2021/06/30 07:45:33;;;;;;;12.77;5.27;;;;;;;;;;5031283;28;20028;-66
2021/06/30 07:47:59;;;;;;;14.20;4.90;;;;;;;;;;5030927;28;20363;-66
2021/06/30 07:50:24;;;;;;;10.65;4.95;;;;;;;;;;5032446;28;20159;-66
2021/06/30 07:52:49;;;;;;;11.03;4.90;;;;;;;;;;5030769;28;20060;-66
2021/06/30 07:55:17;;;;;;;13.95;5.40;;;;;;;;;;5029979;28;20276;-66
2021/06/30 07:57:43;;;;;;;13.82;5.78;;;;;;;;;;5031495;28;20021;-66
2021/06/30 08:00:08;;;;;;;10.10;5.95;;;;;;;;;;5031966;28;20025;-66
2021/06/30 08:02:35;;;;;;;8.52;5.05;;;;;;;;;;5031646;28;20020;-66
2021/06/30 08:05:00;;;;;;;9.00;4.88;;;;;;;;;;5031369;28;20025;-66
2021/06/30 08:07:26;;;;;;;6.72;4.28;;;;;;;;;;5032141;28;20018;-66
2021/06/30 08:09:51;;;;;;;8.70;5.38;;;;;;;;;;5032018;28;20025;-66
2021/06/30 08:12:16;;;;;;;5.90;4.60;;;;;;;;;;5031774;28;20033;-66
2021/06/30 08:14:41;;;;;;;6.88;4.45;;;;;;;;;;5031670;28;20295;-66
2021/06/30 08:17:06;;;;;;;8.37;5.53;;;;;;;;;;5031755;28;20100;-66
2021/06/30 08:19:32;;;;;;;8.23;5.87;;;;;;;;;;5031391;28;20264;-66
2021/06/30 08:21:57;;;;;;;12.40;5.82;;;;;;;;;;5030844;28;20669;-66
2021/06/30 08:24:23;;;;;;;10.25;6.30;;;;;;;;;;5038711;28;20033;-66
2021/06/30 08:26:48;;;;;;;8.73;5.97;;;;;;;;;;5031574;28;20064;-66
2021/06/30 08:29:13;;;;;;;7.47;5.35;;;;;;;;;;5031217;28;20025;-66
2021/06/30 08:31:38;;;;;;;9.05;5.55;;;;;;;;;;5031399;28;20080;-66
2021/06/30 08:34:04;;;;;;;8.90;5.82;;;;;;;;;;5030465;28;20400;-66
2021/06/30 08:36:29;;;;;;;7.70;6.43;;;;;;;;;;5031255;28;20483;-66
2021/06/30 08:38:54;;;;;;;7.28;5.45;;;;;;;;;;5031332;28;20022;-66
2021/06/30 08:41:20;;;;;;;11.73;6.97;;;;;;;;;;5030614;28;20086;-66
2021/06/30 08:43:45;;;;;;;7.32;5.28;;;;;;;;;;5031266;28;20069;-66
2021/06/30 08:46:14;;;;;;;4.88;4.00;;;;;;;;;;5030706;28;20088;-66
2021/06/30 08:48:40;;;;;;;4.82;2.05;;;;;;;;;;5020896;28;20490;-66
2021/06/30 08:51:06;;;;;;;6.95;2.33;;;;;;;;;;5022805;28;20029;-66
2021/06/30 08:53:32;;;;;;;5.07;1.77;;;;;;;;;;5031227;28;20032;-66
2021/06/30 08:55:58;;;;;;;1.25;0.85;;;;;;;;;;5030081;28;20025;-66
2021/06/30 08:58:23;;;;;;;1.10;0.90;;;;;;;;;;5030993;28;20029;-66
2021/06/30 09:00:48;;;;;;;3.50;0.80;;;;;;;;;;5030955;28;20079;-66
2021/06/30 09:03:18;;;;;;;3.00;0.90;;;;;;;;;;5030601;28;20364;-66
2021/06/30 09:08:21;;;;;;;2.17;0.80;;;;;;;;;;5030216;28;20401;-66
2021/06/30 09:10:46;;;;;;;4.53;1.43;;;;;;;;;;5025333;28;20029;-66
2021/06/30 09:13:22;;;;;;;5.53;2.25;;;;;;;;;;5029374;28;20108;-66
2021/06/30 09:16:06;;;;;;;4.05;2.05;;;;;;;;;;5030674;28;20040;-66
2021/06/30 09:18:36;;;;;;;6.60;1.85;;;;;;;;;;5027404;28;20040;-66
2021/06/30 09:21:20;;;;;;;3.33;2.17;;;;;;;;;;5023102;28;20025;-66
2021/06/30 09:23:55;;;;;;;4.75;2.30;;;;;;;;;;5028638;28;20045;-66
2021/06/30 09:26:20;;;;;;;5.90;2.30;;;;;;;;;;5029871;28;20100;-66
2021/06/30 09:28:45;;;;;;;3.78;1.83;;;;;;;;;;5030701;28;20152;-66
2021/06/30 09:31:14;;;;;;;4.93;1.17;;;;;;;;;;5030439;28;20076;-66
2021/06/30 09:33:50;;;;;;;4.93;1.05;;;;;;;;;;5023272;28;20302;-66
2021/06/30 09:36:15;;;;;;;2.85;1.08;;;;;;;;;;5028945;28;20036;-66
2021/06/30 09:38:43;;;;;;;4.50;1.10;;;;;;;;;;5030558;28;20025;-66
2021/06/30 09:41:15;;;;;;;1.83;0.73;;;;;;;;;;5030448;28;20096;-66
2021/06/30 09:43:40;;;;;;;1.00;0.60;;;;;;;;;;5030354;28;20604;-66
2021/06/30 09:46:17;;;;;;;2.17;0.90;;;;;;;;;;5029235;28;20104;-66
2021/06/30 09:48:42;;;;;;;0.98;0.63;;;;;;;;;;5029713;28;20272;-66
2021/06/30 09:51:15;;;;;;;1.83;0.90;;;;;;;;;;5028732;28;20025;-66
2021/06/30 09:53:41;;;;;;;5.18;0.80;;;;;;;;;;5030584;28;20782;-66
2021/06/30 09:56:10;;;;;;;0.57;0.52;;;;;;;;;;5029411;28;20026;-66
2021/06/30 09:58:35;;;;;;;3.90;0.70;;;;;;;;;;5030410;28;20033;-66
2021/06/30 10:01:33;;;;;;;4.90;0.70;;;;;;;;;;5029388;28;20017;-66
2021/06/30 10:03:58;;;;;;;3.13;0.70;;;;;;;;;;4994586;28;20363;-66
2021/06/30 10:06:25;;;;;;;2.05;0.70;;;;;;;;;;5029430;28;20432;-66
2021/06/30 10:08:50;;;;;;;2.05;0.88;;;;;;;;;;5030091;28;20022;-66
2021/06/30 10:11:15;;;;;;;1.87;0.80;;;;;;;;;;5029925;28;20024;-66
2021/06/30 10:13:40;;;;;;;1.27;0.65;;;;;;;;;;5030412;28;20696;-66
2021/06/30 10:16:06;;;;;;;0.83;0.60;;;;;;;;;;5029158;28;21824;-66
2021/06/30 10:18:33;;;;;;;1.02;0.70;;;;;;;;;;5030181;28;20768;-66
2021/06/30 10:20:58;;;;;;;3.13;0.70;;;;;;;;;;5030133;28;20029;-66
2021/06/30 10:23:23;;;;;;;8.77;0.98;;;;;;;;;;5027992;28;20025;-66
2021/06/30 10:25:48;;;;;;;4.63;1.07;;;;;;;;;;5029717;28;20041;-66
2021/06/30 10:28:14;;;;;;;1.20;1.08;;;;;;;;;;5030153;28;20276;-66
2021/06/30 10:30:39;;;;;;;1.50;0.93;;;;;;;;;;5033545;28;20031;-66
2021/06/30 10:33:05;;;;;;;1.15;0.80;;;;;;;;;;5033710;28;20466;-66
2021/06/30 10:35:32;;;;;;;2.00;0.90;;;;;;;;;;5032717;28;20044;-66
2021/06/30 10:37:57;;;;;;;1.02;0.60;;;;;;;;;;5033684;28;20276;-66
2021/06/30 10:40:23;;;;;;;4.97;1.10;;;;;;;;;;5018821;28;20020;-66
2021/06/30 10:43:02;;;;;;;2.35;1.10;;;;;;;;;;5028971;28;20017;-66
2021/06/30 10:45:27;;;;;;;4.20;1.60;;;;;;;;;;5032135;28;20040;-66
2021/06/30 10:47:55;;;;;;;1.23;1.13;;;;;;;;;;5033620;28;20022;-66
2021/06/30 10:50:23;;;;;;;2.28;1.63;;;;;;;;;;5033353;28;20118;-66
2021/06/30 10:52:53;;;;;;;1.98;1.50;;;;;;;;;;5032185;28;20030;-66
2021/06/30 10:55:49;;;;;;;2.90;1.40;;;;;;;;;;5031444;28;20048;-66
2021/06/30 10:58:15;;;;;;;3.05;0.70;;;;;;;;;;5016647;28;20053;-66
2021/06/30 11:01:03;;;;;;;2.53;1.20;;;;;;;;;;5060208;22;20021;-65
2021/06/30 11:03:34;;;;;;;1.55;1.08;;;;;;;;;;5061114;28;20388;-65
2021/06/30 11:06:24;;;;;;;2.00;1.23;;;;;;;;;;5053728;28;20021;-66
2021/06/30 11:08:53;;;;;;;1.27;0.68;;;;;;;;;;5055748;28;20108;-65
2021/06/30 11:11:33;;;;;;;3.00;1.30;;;;;;;;;;5054524;28;20063;-65
2021/06/30 11:14:08;;;;;;;1.20;1.10;;;;;;;;;;5052445;28;20279;-65
2021/06/30 11:16:36;;;;;;;4.00;1.10;;;;;;;;;;5050360;28;20033;-65
2021/06/30 11:19:01;;;;;;;1.83;1.08;;;;;;;;;;5052525;28;20534;-65
2021/06/30 11:21:45;;;;;;;3.47;0.80;;;;;;;;;;5052621;28;20033;-65
2021/06/30 11:24:29;;;;;;;1.55;0.80;;;;;;;;;;5048472;28;20086;-65
2021/06/30 11:26:55;;;;;;;3.22;1.15;;;;;;;;;;5066808;28;20484;-66
2021/06/30 11:29:38;;;;;;;2.28;1.25;;;;;;;;;;5073132;28;20024;-66
2021/06/30 11:32:04;;;;;;;3.38;1.40;;;;;;;;;;5072699;28;20021;-65
2021/06/30 11:34:29;;;;;;;2.05;1.38;;;;;;;;;;5072934;28;20031;-65
2021/06/30 11:36:54;;;;;;;3.78;1.58;;;;;;;;;;5072735;28;20017;-66
2021/06/30 11:39:21;;;;;;;2.67;1.60;;;;;;;;;;5047818;28;20389;-65
2021/06/30 11:41:51;;;;;;;5.20;1.73;;;;;;;;;;5051150;28;20270;-65
2021/06/30 11:44:18;;;;;;;2.45;1.25;;;;;;;;;;5052662;28;20488;-66
2021/06/30 11:46:44;;;;;;;2.50;0.95;;;;;;;;;;5052612;28;20501;-66
2021/06/30 11:49:10;;;;;;;2.13;1.02;;;;;;;;;;5052521;28;20040;-65
2021/06/30 11:51:35;;;;;;;1.08;0.70;;;;;;;;;;5051904;28;20428;-65
2021/06/30 11:54:01;;;;;;;2.08;1.15;;;;;;;;;;5038770;28;20100;-65
2021/06/30 11:56:29;;;;;;;0.90;0.70;;;;;;;;;;5044219;28;20029;-65
2021/06/30 11:58:54;;;;;;;0.73;0.50;;;;;;;;;;5048398;28;20017;-65
2021/06/30 12:01:33;;;;;;;1.08;0.82;;;;;;;;;;5049799;28;20525;-65
2021/06/30 12:04:10;;;;;;;1.20;0.77;;;;;;;;;;5052146;28;20491;-65
2021/06/30 12:06:36;;;;;;;2.15;1.60;;;;;;;;;;5050998;28;20017;-65
2021/06/30 12:09:16;;;;;;;1.98;1.13;;;;;;;;;;5052106;28;20150;-65
2021/06/30 12:11:46;;;;;;;4.03;2.08;;;;;;;;;;5052132;28;20024;-65
2021/06/30 12:14:15;;;;;;;6.18;1.70;;;;;;;;;;5052021;28;20082;-65
2021/06/30 12:16:46;;;;;;;2.83;1.40;;;;;;;;;;5051329;28;20025;-65
2021/06/30 12:19:16;;;;;;;4.28;1.05;;;;;;;;;;5035983;28;20033;-66
2021/06/30 12:21:42;;;;;;;2.58;1.38;;;;;;;;;;5044757;28;20021;-65
2021/06/30 12:24:15;;;;;;;3.83;1.45;;;;;;;;;;5055329;28;20382;-65
2021/06/30 12:27:00;;;;;;;2.03;1.27;;;;;;;;;;5057077;28;20047;-65
2021/06/30 12:29:26;;;;;;;1.25;1.00;;;;;;;;;;5051773;28;20339;-65
2021/06/30 12:31:51;;;;;;;2.65;1.58;;;;;;;;;;5050793;28;20449;-65
2021/06/30 12:34:17;;;;;;;1.67;1.38;;;;;;;;;;5051603;28;20115;-65
2021/06/30 12:36:42;;;;;;;2.00;1.75;;;;;;;;;;5051654;28;20043;-65
2021/06/30 12:39:17;;;;;;;1.58;1.00;;;;;;;;;;5051903;28;20047;-65
2021/06/30 12:42:00;;;;;;;2.30;1.10;;;;;;;;;;5052101;28;20481;-65
2021/06/30 12:44:27;;;;;;;2.10;1.30;;;;;;;;;;5051169;28;20025;-65
2021/06/30 12:47:12;;;;;;;1.05;0.95;;;;;;;;;;5038189;28;20018;-65
2021/06/30 12:49:38;;;;;;;1.67;1.50;;;;;;;;;;5031547;28;20315;-65
2021/06/30 12:52:03;;;;;;;1.52;1.20;;;;;;;;;;5031074;28;20018;-65
2021/06/30 12:54:28;;;;;;;0.90;0.80;;;;;;;;;;5031163;28;20446;-65
2021/06/30 12:57:04;;;;;;;2.20;1.17;;;;;;;;;;5048151;28;20029;-65
2021/06/30 12:59:29;;;;;;;3.05;1.15;;;;;;;;;;5049413;28;20366;-65
2021/06/30 13:01:56;;;;;;;2.05;1.02;;;;;;;;;;5036369;28;20136;-65
2021/06/30 13:04:28;;;;;;;1.95;1.15;;;;;;;;;;5050752;28;20143;-65
2021/06/30 13:06:54;;;;;;;3.30;0.95;;;;;;;;;;5050605;28;20389;-65
2021/06/30 13:09:23;;;;;;;4.78;1.30;;;;;;;;;;5050823;28;20017;-65
2021/06/30 13:11:52;;;;;;;1.80;1.30;;;;;;;;;;5050773;28;20104;-65
2021/06/30 13:14:19;;;;;;;1.65;1.50;;;;;;;;;;5050001;28;20108;-65
2021/06/30 13:16:58;;;;;;;1.42;1.30;;;;;;;;;;5050440;28;20016;-65
2021/06/30 13:19:24;;;;;;;1.52;1.20;;;;;;;;;;5050662;28;20031;-65
2021/06/30 13:21:57;;;;;;;4.18;1.30;;;;;;;;;;5048956;28;20025;-65
2021/06/30 13:24:39;;;;;;;2.50;1.35;;;;;;;;;;5039940;28;20041;-65
2021/06/30 13:35:42;;;;;;;3.50;1.63;;;;;;;;;;5007990;28;20547;-65
2021/06/30 13:38:10;;;;;;;3.20;1.63;;;;;;;;;;5041259;28;20155;-65
2021/06/30 13:40:37;;;;;;;5.80;1.75;;;;;;;;;;5050161;28;20020;-65
2021/06/30 13:43:04;;;;;;;5.32;2.00;;;;;;;;;;5033754;28;20300;-65
2021/06/30 13:45:34;;;;;;;2.53;2.10;;;;;;;;;;5035718;28;20029;-65
2021/06/30 13:48:00;;;;;;;2.90;2.05;;;;;;;;;;5050185;28;20396;-65
2021/06/30 13:50:25;;;;;;;3.00;1.98;;;;;;;;;;5050132;28;20021;-65
2021/06/30 13:52:50;;;;;;;2.78;1.83;;;;;;;;;;5048716;28;20120;-65
2021/06/30 13:55:17;;;;;;;2.93;2.27;;;;;;;;;;5049284;28;20017;-65
2021/06/30 13:57:42;;;;;;;4.30;2.45;;;;;;;;;;5050274;28;20260;-65
2021/06/30 14:00:07;;;;;;;2.80;2.10;;;;;;;;;;5050194;28;20016;-65
2021/06/30 14:02:33;;;;;;;3.10;2.17;;;;;;;;;;5049492;28;20854;-65
2021/06/30 14:04:58;;;;;;;8.18;3.15;;;;;;;;;;5049373;28;20056;-65
2021/06/30 14:07:24;;;;;;;5.00;2.80;;;;;;;;;;5049603;28;20020;-65
2021/06/30 14:09:51;;;;;;;3.00;2.42;;;;;;;;;;5040681;28;20268;-65
2021/06/30 14:12:16;;;;;;;3.42;2.50;;;;;;;;;;5049890;28;20442;-66
2021/06/30 14:14:41;;;;;;;3.53;2.67;;;;;;;;;;5049428;28;20112;-65
2021/06/30 14:17:06;;;;;;;4.87;3.80;;;;;;;;;;5049956;28;20029;-65
2021/06/30 14:19:32;;;;;;;2.80;2.10;;;;;;;;;;5049386;28;20341;-65
2021/06/30 14:21:57;;;;;;;3.55;2.47;;;;;;;;;;5033421;28;20802;-65
2021/06/30 14:24:22;;;;;;;8.88;2.40;;;;;;;;;;5029960;28;20428;-65
2021/06/30 14:26:47;;;;;;;3.20;2.00;;;;;;;;;;5060851;28;20056;-65
2021/06/30 14:29:13;;;;;;;5.03;1.93;;;;;;;;;;5069739;28;20255;-65
2021/06/30 14:31:38;;;;;;;4.30;2.30;;;;;;;;;;5034909;28;20817;-65
2021/06/30 14:34:06;;;;;;;6.03;2.40;;;;;;;;;;5047045;28;20044;-65
2021/06/30 14:36:31;;;;;;;3.20;2.75;;;;;;;;;;5049267;28;20059;-65
2021/06/30 14:38:57;;;;;;;4.65;2.25;;;;;;;;;;5049814;28;20053;-65
2021/06/30 14:41:22;;;;;;;2.83;2.20;;;;;;;;;;5049324;28;20436;-65
2021/06/30 14:43:47;;;;;;;2.88;2.13;;;;;;;;;;5049735;28;20093;-65
2021/06/30 14:46:12;;;;;;;6.15;2.00;;;;;;;;;;5049400;28;20032;-66
2021/06/30 14:48:38;;;;;;;2.33;1.63;;;;;;;;;;5049022;28;20106;-65